Time;durP1;ratioP1;P1;durP2;ratioP2;P2;SDS_P1;SDS_P2;PMS_P1;PMS_P2;Temp;Humidity;BMP_temperature;BMP_pressure;BME280_temperature;BME280_humidity;BME280_pressure;Samples;Min_cycle;Max_cycle;Signal;HPM_P1;HPM_P2
2023/10/04 00:00:15;;;;;;;11.38;2.75;;;;;;;17.44;72.31;101697.72;5049574;27;99454;-73
2023/10/04 00:02:43;;;;;;;15.55;2.88;;;;;;;17.39;72.24;101687.25;5052498;27;99480;-74
2023/10/04 00:05:10;;;;;;;8.15;2.00;;;;;;;17.26;72.90;101695.97;5052484;27;97274;-73
2023/10/04 00:07:37;;;;;;;13.15;2.20;;;;;;;17.45;72.09;101699.47;5050836;27;98636;-76
2023/10/04 00:10:06;;;;;;;7.88;1.80;;;;;;;17.40;71.36;101707.69;5052811;27;99781;-76
2023/10/04 00:12:32;;;;;;;13.05;2.00;;;;;;;16.96;72.90;101706.28;5047418;27;97241;-76
2023/10/04 00:14:58;;;;;;;6.63;2.17;;;;;;;16.80;73.59;101716.81;5052957;27;96777;-76
2023/10/04 00:17:25;;;;;;;9.68;1.83;;;;;;;16.91;73.16;101716.31;5046416;27;97471;-76
2023/10/04 00:19:52;;;;;;;15.40;2.80;;;;;;;17.09;72.73;101718.97;5049985;27;97673;-76
2023/10/04 00:22:23;;;;;;;14.00;2.47;;;;;;;17.33;71.35;101732.97;5052756;27;98704;-76
2023/10/04 00:24:51;;;;;;;7.55;1.83;;;;;;;17.30;71.15;101721.56;5053233;27;96800;-76
2023/10/04 00:27:20;;;;;;;4.28;1.58;;;;;;;17.42;70.55;101743.22;5053651;27;96882;-79
2023/10/04 00:29:47;;;;;;;7.80;2.00;;;;;;;17.47;70.16;101726.94;5050330;27;98999;-79
2023/10/04 00:32:13;;;;;;;11.98;2.22;;;;;;;17.45;70.06;101727.06;5053287;27;101576;-79
2023/10/04 00:34:40;;;;;;;6.60;1.73;;;;;;;17.35;70.00;101743.59;5051552;27;98488;-79
2023/10/04 00:37:08;;;;;;;8.82;1.70;;;;;;;17.30;71.00;101742.94;5053621;27;96774;-78
2023/10/04 00:39:36;;;;;;;5.22;1.70;;;;;;;17.03;71.92;101735.28;5053827;27;98192;-78
2023/10/04 00:42:03;;;;;;;9.23;1.80;;;;;;;17.14;72.03;101740.97;5053587;27;102439;-78
2023/10/04 00:44:34;;;;;;;9.60;1.80;;;;;;;17.31;71.02;101744.69;5054200;27;97174;-77
2023/10/04 00:47:02;;;;;;;9.30;2.28;;;;;;;17.35;70.65;101747.13;5048343;27;96863;-78
2023/10/04 00:49:29;;;;;;;17.98;1.88;;;;;;;17.35;70.25;101751.59;5049688;27;98004;-78
2023/10/04 00:51:58;;;;;;;10.40;1.83;;;;;;;17.13;70.99;101751.75;5051015;27;99190;-78
2023/10/04 00:54:24;;;;;;;9.55;1.60;;;;;;;17.16;71.26;101756.94;5054187;27;97087;-78
2023/10/04 00:56:51;;;;;;;10.82;2.25;;;;;;;17.07;71.73;101741.34;5051647;27;96852;-78
2023/10/04 00:59:18;;;;;;;7.72;1.92;;;;;;;17.14;71.70;101749.00;5053188;27;101409;-78
2023/10/04 01:01:46;;;;;;;8.95;1.55;;;;;;;17.10;71.79;101736.75;5049005;27;101500;-79
2023/10/04 01:04:12;;;;;;;10.02;1.98;;;;;;;17.12;71.42;101737.53;5046886;27;96840;-77
2023/10/04 01:06:39;;;;;;;7.97;2.00;;;;;;;17.04;72.06;101744.16;5054077;27;96783;-78
2023/10/04 01:09:06;;;;;;;11.95;1.58;;;;;;;17.21;71.48;101738.03;5050671;27;101744;-78
2023/10/04 01:11:34;;;;;;;6.47;1.95;;;;;;;17.14;71.87;101737.44;5053096;27;99313;-79
2023/10/04 01:14:21;;;;;;;15.75;3.28;;;;;;;17.03;72.30;101745.97;5048315;27;97678;-78
2023/10/04 01:16:51;;;;;;;11.32;2.17;;;;;;;17.07;72.49;101746.69;5052952;27;96856;-78
2023/10/04 01:19:18;;;;;;;12.88;2.50;;;;;;;16.83;73.38;101748.69;5052675;27;99342;-79
2023/10/04 01:21:45;;;;;;;11.88;1.80;;;;;;;16.77;73.96;101740.97;5051875;27;99030;-81
2023/10/04 01:24:16;;;;;;;6.93;2.20;;;;;;;16.79;74.30;101752.44;5053089;27;97002;-79
2023/10/04 01:26:43;;;;;;;7.38;2.00;;;;;;;16.61;74.78;101754.13;5052898;27;96791;-80
2023/10/04 01:29:11;;;;;;;8.60;2.10;;;;;;;16.68;74.85;101757.38;5050635;27;98412;-78
2023/10/04 01:31:38;;;;;;;5.72;1.70;;;;;;;16.79;74.23;101752.44;5046087;27;98742;-80
2023/10/04 01:34:06;;;;;;;7.13;1.70;;;;;;;16.82;74.14;101762.97;5051631;27;96968;-78
2023/10/04 01:36:33;;;;;;;9.05;2.17;;;;;;;16.81;74.33;101757.69;5051549;27;97136;-78
2023/10/04 01:39:00;;;;;;;9.52;1.80;;;;;;;16.92;73.51;101753.63;5048278;27;99222;-78
2023/10/04 01:41:28;;;;;;;16.33;2.47;;;;;;;16.52;74.97;101749.19;5048358;27;98808;-78
2023/10/04 01:44:00;;;;;;;6.88;1.95;;;;;;;16.78;74.61;101747.16;5049021;27;96726;-78
2023/10/04 01:46:27;;;;;;;9.00;2.30;;;;;;;16.78;73.76;101748.03;5050483;27;96825;-78
2023/10/04 01:48:54;;;;;;;9.30;1.98;;;;;;;16.89;73.60;101734.19;5051040;27;98124;-78
2023/10/04 01:51:21;;;;;;;15.50;2.53;;;;;;;16.79;73.40;101740.91;5053335;27;100913;-78
2023/10/04 01:53:48;;;;;;;8.02;2.10;;;;;;;16.77;73.85;101738.28;5047821;27;97272;-78
2023/10/04 01:56:15;;;;;;;8.77;2.08;;;;;;;16.83;73.26;101740.69;5050870;27;96806;-78
2023/10/04 01:58:43;;;;;;;19.10;2.50;;;;;;;16.98;72.72;101731.97;5044436;27;99691;-78
2023/10/04 02:01:09;;;;;;;11.15;2.30;;;;;;;16.86;73.20;101732.53;5052421;27;98897;-78
2023/10/04 02:03:36;;;;;;;11.60;3.00;;;;;;;16.57;74.20;101730.28;5050942;27;98391;-78
2023/10/04 02:06:04;;;;;;;8.00;2.05;;;;;;;16.40;75.77;101736.38;5047899;27;96995;-78
2023/10/04 02:08:32;;;;;;;8.88;2.10;;;;;;;16.45;75.51;101736.16;5047015;27;99201;-79
2023/10/04 02:10:59;;;;;;;8.38;1.80;;;;;;;16.25;76.41;101735.25;5051385;27;98828;-78
2023/10/04 02:13:27;;;;;;;6.78;2.67;;;;;;;16.41;75.96;101735.41;5048155;27;96827;-79
2023/10/04 02:15:54;;;;;;;7.15;2.33;;;;;;;16.59;74.84;101733.75;5051056;27;97241;-78
2023/10/04 02:18:22;;;;;;;13.13;2.40;;;;;;;16.55;74.77;101741.03;5046759;27;98909;-78
2023/10/04 02:20:50;;;;;;;4.97;2.28;;;;;;;16.60;74.72;101744.41;5052519;27;98805;-77
2023/10/04 02:23:17;;;;;;;11.75;2.38;;;;;;;16.59;74.44;101733.75;5048181;27;96901;-78
2023/10/04 02:25:44;;;;;;;7.32;2.00;;;;;;;16.93;73.60;101743.81;5052473;27;96747;-77
2023/10/04 02:28:11;;;;;;;6.15;2.13;;;;;;;16.98;72.89;101749.78;5050399;27;98917;-78
2023/10/04 02:30:37;;;;;;;7.18;1.98;;;;;;;16.96;73.00;101747.19;5051407;27;102468;-78
2023/10/04 02:33:08;;;;;;;7.88;2.15;;;;;;;16.52;74.43;101745.63;5050874;27;96706;-77
2023/10/04 02:35:43;;;;;;;16.75;2.90;;;;;;;16.53;74.95;101740.25;5046107;27;98743;-79
2023/10/04 02:38:16;;;;;;;11.82;2.28;;;;;;;16.70;74.02;101742.19;5045212;27;99313;-80
2023/10/04 02:40:43;;;;;;;9.15;2.22;;;;;;;16.69;73.75;101740.44;5050678;27;99179;-79
2023/10/04 02:43:10;;;;;;;14.82;2.85;;;;;;;16.73;74.14;101736.72;5054789;27;97861;-78
2023/10/04 02:45:36;;;;;;;16.00;2.67;;;;;;;16.56;74.49;101733.88;5054142;27;97036;-78
2023/10/04 02:48:03;;;;;;;10.85;2.15;;;;;;;16.61;74.31;101735.44;5048341;27;99925;-76
2023/10/04 02:50:32;;;;;;;7.03;2.20;;;;;;;16.50;74.60;101734.16;5053272;27;98829;-76
2023/10/04 02:52:59;;;;;;;5.18;2.20;;;;;;;16.57;74.66;101741.81;5045594;27;98588;-76
2023/10/04 02:55:27;;;;;;;6.95;2.08;;;;;;;16.67;73.93;101742.34;5053776;27;98061;-76
2023/10/04 02:57:55;;;;;;;8.90;2.33;;;;;;;16.56;73.99;101728.53;5052836;27;102148;-76
2023/10/04 03:00:26;;;;;;;7.75;3.00;;;;;;;16.34;75.16;101744.66;5052972;27;99149;-77
2023/10/04 03:02:54;;;;;;;5.95;2.25;;;;;;;16.33;75.53;101735.78;5052062;27;98289;-76
2023/10/04 03:05:21;;;;;;;9.57;2.67;;;;;;;16.47;74.71;101734.31;5052885;27;97975;-76
2023/10/04 03:07:50;;;;;;;9.63;2.70;;;;;;;16.35;75.17;101739.22;5054315;27;98938;-77
2023/10/04 03:10:24;;;;;;;12.82;2.78;;;;;;;16.15;76.34;101731.22;5054619;27;98889;-76
2023/10/04 03:12:52;;;;;;;7.90;2.33;;;;;;;16.27;76.04;101744.06;5045282;27;96708;-74
2023/10/04 03:15:21;;;;;;;8.65;2.80;;;;;;;16.55;74.83;101737.47;5055721;27;97391;-75
2023/10/04 03:17:47;;;;;;;10.88;2.70;;;;;;;16.69;73.78;101743.97;5053706;27;98262;-75
2023/10/04 03:20:20;;;;;;;8.35;2.72;;;;;;;16.79;73.44;101744.44;5043131;27;99255;-76
2023/10/04 03:22:49;;;;;;;7.90;2.63;;;;;;;16.80;73.08;101740.84;5053171;27;97800;-76
2023/10/04 03:25:17;;;;;;;8.85;3.20;;;;;;;16.74;73.16;101743.75;5050462;27;97328;-76
2023/10/04 03:27:44;;;;;;;8.85;2.70;;;;;;;16.81;73.15;101749.69;5049058;27;98979;-75
2023/10/04 03:30:14;;;;;;;12.90;4.15;;;;;;;16.78;72.95;101740.03;5054278;27;99134;-76
2023/10/04 03:32:42;;;;;;;6.82;2.42;;;;;;;16.87;72.75;101750.28;5054717;27;97444;-75
2023/10/04 03:35:10;;;;;;;6.43;3.13;;;;;;;16.68;73.10;101749.38;5052165;27;96925;-74
2023/10/04 03:37:39;;;;;;;11.02;2.95;;;;;;;16.59;73.55;101749.78;5053043;27;99279;-75
2023/10/04 03:40:14;;;;;;;9.35;2.97;;;;;;;16.73;73.61;101758.94;5052466;27;98947;-75
2023/10/04 03:42:41;;;;;;;11.13;3.23;;;;;;;16.91;72.79;101761.69;5048148;27;99052;-75
2023/10/04 03:45:10;;;;;;;13.15;3.90;;;;;;;16.51;74.04;101773.25;5052113;27;98187;-77
2023/10/04 03:47:39;;;;;;;9.25;3.35;;;;;;;16.50;74.21;101777.72;5052525;27;99233;-74
2023/10/04 03:50:09;;;;;;;10.25;3.35;;;;;;;16.55;74.12;101774.84;5051367;27;99133;-74
2023/10/04 03:52:35;;;;;;;6.28;3.22;;;;;;;16.44;73.77;101772.66;5047841;27;97926;-75
2023/10/04 03:55:06;;;;;;;10.23;3.60;;;;;;;16.46;74.14;101776.13;5053857;27;97586;-74
2023/10/04 03:57:34;;;;;;;7.55;3.08;;;;;;;16.28;75.19;101771.56;5048207;27;99923;-75
2023/10/04 04:00:12;;;;;;;9.18;3.25;;;;;;;16.18;75.82;101776.44;5050638;27;100166;-74
2023/10/04 04:02:39;;;;;;;8.30;3.10;;;;;;;16.13;76.06;101777.56;5054209;27;100158;-74
2023/10/04 04:05:09;;;;;;;11.02;3.28;;;;;;;16.30;75.41;101773.25;5052593;27;97003;-74
2023/10/04 04:07:36;;;;;;;9.75;3.05;;;;;;;16.28;75.00;101766.22;5047811;27;98894;-74
2023/10/04 04:10:07;;;;;;;10.48;2.97;;;;;;;16.42;74.64;101770.97;5052458;27;98740;-75
2023/10/04 04:12:36;;;;;;;12.82;3.33;;;;;;;16.39;74.52;101779.13;5052430;27;98527;-75
2023/10/04 04:15:04;;;;;;;13.30;3.22;;;;;;;16.38;74.62;101770.25;5051353;27;96827;-75
2023/10/04 04:17:30;;;;;;;8.93;3.47;;;;;;;16.39;74.93;101773.78;5053565;27;99197;-75
2023/10/04 04:19:57;;;;;;;9.50;2.95;;;;;;;16.29;74.95;101771.50;5048735;27;98910;-75
2023/10/04 04:22:25;;;;;;;12.02;3.42;;;;;;;16.34;74.86;101780.16;5046727;27;97187;-75
2023/10/04 04:24:52;;;;;;;12.80;3.28;;;;;;;16.25;75.29;101791.25;5050674;27;96811;-75
2023/10/04 04:27:22;;;;;;;14.30;3.03;;;;;;;16.17;75.98;101782.69;5051906;27;98930;-78
2023/10/04 04:29:52;;;;;;;8.82;3.30;;;;;;;16.23;75.49;101787.78;5051676;27;98797;-79
2023/10/04 04:32:26;;;;;;;11.32;3.50;;;;;;;16.20;75.26;101784.38;5049433;27;96803;-79
2023/10/04 04:34:53;;;;;;;9.80;2.97;;;;;;;16.08;76.27;101788.41;5049653;27;96882;-78
2023/10/04 04:37:20;;;;;;;11.23;3.20;;;;;;;16.11;76.19;101790.09;5054596;27;99369;-79
2023/10/04 04:39:46;;;;;;;11.80;3.80;;;;;;;16.24;75.05;101781.50;5048502;27;98810;-79
2023/10/04 04:42:18;;;;;;;11.48;3.35;;;;;;;16.12;76.06;101792.69;5046267;27;97899;-79
2023/10/04 04:44:44;;;;;;;15.77;3.63;;;;;;;16.17;75.59;101787.16;5052378;27;97537;-79
2023/10/04 04:47:12;;;;;;;9.55;3.30;;;;;;;16.29;75.22;101782.16;5051640;27;101789;-80
2023/10/04 04:49:38;;;;;;;6.82;3.33;;;;;;;16.20;75.30;101784.38;5046959;27;100022;-80
2023/10/04 04:52:06;;;;;;;18.98;4.50;;;;;;;16.39;74.50;101780.00;5050565;27;96945;-79
2023/10/04 04:54:33;;;;;;;9.23;3.33;;;;;;;16.26;74.59;101778.78;5048850;27;96873;-78
2023/10/04 04:57:00;;;;;;;6.00;2.92;;;;;;;16.30;74.64;101770.56;5051978;27;99651;-79
2023/10/04 04:59:27;;;;;;;11.60;2.95;;;;;;;16.33;74.75;101778.47;5049958;27;99066;-80
2023/10/04 05:01:55;;;;;;;6.65;2.60;;;;;;;16.12;74.94;101782.03;5049264;27;97202;-79
2023/10/04 05:04:23;;;;;;;6.35;2.63;;;;;;;16.18;75.37;101784.44;5049598;27;96950;-80
2023/10/04 05:06:50;;;;;;;10.52;2.35;;;;;;;16.19;74.92;101778.19;5048294;27;98935;-78
2023/10/04 05:09:17;;;;;;;6.07;2.67;;;;;;;16.34;74.39;101787.34;5047038;27;101367;-79
2023/10/04 05:11:45;;;;;;;6.32;2.92;;;;;;;16.12;75.29;101783.84;5051091;27;96789;-80
2023/10/04 05:14:11;;;;;;;15.18;3.13;;;;;;;16.24;75.04;101802.84;5044821;27;96787;-79
2023/10/04 05:16:38;;;;;;;9.80;2.90;;;;;;;16.29;74.60;101794.63;5046983;27;101321;-80
2023/10/04 05:19:08;;;;;;;9.65;2.88;;;;;;;16.35;74.33;101799.72;5050964;27;99524;-80
2023/10/04 05:21:36;;;;;;;7.68;2.97;;;;;;;16.47;73.57;101790.34;5047665;27;98554;-75
2023/10/04 05:24:05;;;;;;;17.92;4.40;;;;;;;16.44;73.15;101787.78;5050621;27;97010;-76
2023/10/04 05:26:32;;;;;;;8.90;3.03;;;;;;;16.46;73.22;101796.59;5046831;27;99435;-76
2023/10/04 05:29:00;;;;;;;8.18;2.78;;;;;;;16.35;73.92;101786.38;5051126;27;99157;-78
2023/10/04 05:31:26;;;;;;;8.82;2.97;;;;;;;16.38;73.89;101788.94;5051731;27;97154;-78
2023/10/04 05:33:53;;;;;;;11.82;2.70;;;;;;;16.45;73.21;101789.53;5053390;27;96808;-80
2023/10/04 05:36:20;;;;;;;10.20;2.75;;;;;;;16.42;73.28;101795.84;5048986;27;100106;-71
2023/10/04 05:38:48;;;;;;;10.55;3.38;;;;;;;16.13;74.57;101802.44;5044610;27;98910;-69
2023/10/04 05:41:14;;;;;;;10.18;2.67;;;;;;;16.29;73.98;101790.16;5047204;27;97599;-78
2023/10/04 05:43:40;;;;;;;7.30;2.20;;;;;;;16.22;74.40;101809.16;5047561;27;97544;-78
2023/10/04 05:46:07;;;;;;;11.73;3.28;;;;;;;16.31;74.00;101806.13;5046921;27;98993;-78
2023/10/04 05:48:34;;;;;;;9.10;2.83;;;;;;;16.52;72.94;101807.88;5044261;27;100348;-78
2023/10/04 05:51:01;;;;;;;9.13;2.90;;;;;;;16.58;72.65;101815.59;5044120;27;96870;-79
2023/10/04 05:53:28;;;;;;;5.50;1.98;;;;;;;16.53;72.30;101808.75;5051221;27;98001;-79
2023/10/04 05:55:55;;;;;;;8.13;2.55;;;;;;;16.48;73.28;101826.72;5053530;27;101210;-78
2023/10/04 05:58:22;;;;;;;10.27;2.42;;;;;;;16.58;72.91;101826.28;5048375;27;97870;-78
2023/10/04 06:00:52;;;;;;;8.60;2.17;;;;;;;16.56;72.36;101830.81;5049619;27;96689;-79
2023/10/04 06:03:19;;;;;;;6.22;2.00;;;;;;;16.42;72.73;101837.66;5046069;27;96979;-79
2023/10/04 06:05:45;;;;;;;16.17;2.53;;;;;;;16.59;72.75;101845.81;5043406;27;101651;-78
2023/10/04 06:08:18;;;;;;;15.20;3.35;;;;;;;16.54;72.39;101840.66;5050119;27;98547;-78
2023/10/04 06:10:45;;;;;;;12.50;2.92;;;;;;;16.67;72.21;101851.75;5051525;27;97253;-78
2023/10/04 06:13:16;;;;;;;7.15;2.58;;;;;;;16.85;71.45;101856.28;5048016;27;97441;-80
2023/10/04 06:15:44;;;;;;;11.75;2.30;;;;;;;16.79;71.53;101855.66;5047199;27;98917;-79
2023/10/04 06:18:11;;;;;;;10.63;2.58;;;;;;;16.83;70.97;101852.78;5051892;27;102117;-79
2023/10/04 06:20:41;;;;;;;10.20;2.53;;;;;;;16.64;71.96;101866.06;5051669;27;96830;-77
2023/10/04 06:23:09;;;;;;;6.20;2.47;;;;;;;16.79;71.05;101874.34;5049766;27;96910;-79
2023/10/04 06:25:40;;;;;;;11.50;2.60;;;;;;;16.66;72.10;101869.56;5045628;27;99024;-79
2023/10/04 06:28:07;;;;;;;7.63;2.47;;;;;;;16.61;72.38;101870.66;5050058;27;99522;-78
2023/10/04 06:30:35;;;;;;;12.05;2.63;;;;;;;16.63;72.39;101871.47;5045781;27;96887;-78
2023/10/04 06:33:03;;;;;;;8.00;2.50;;;;;;;17.01;71.04;101875.13;5051489;27;96794;-79
2023/10/04 06:35:32;;;;;;;9.02;2.40;;;;;;;17.09;70.52;101878.34;5050427;27;101343;-79
2023/10/04 06:38:00;;;;;;;15.85;2.85;;;;;;;17.11;69.76;101882.69;5047622;27;98843;-78
2023/10/04 06:40:28;;;;;;;9.88;2.70;;;;;;;17.04;70.31;101886.56;5049620;27;96840;-77
2023/10/04 06:42:56;;;;;;;10.25;2.70;;;;;;;17.24;69.36;101882.13;5048500;27;97076;-78
2023/10/04 06:45:24;;;;;;;7.20;2.70;;;;;;;17.15;69.83;101886.06;5047338;27;97695;-78
2023/10/04 06:47:54;;;;;;;7.80;2.30;;;;;;;17.20;69.66;101896.56;5052184;27;100766;-78
2023/10/04 06:50:22;;;;;;;7.82;2.60;;;;;;;17.33;68.91;101903.06;5048243;27;97320;-78
2023/10/04 06:52:51;;;;;;;11.98;2.72;;;;;;;17.06;69.98;101907.88;5040268;27;99210;-78
2023/10/04 06:55:18;;;;;;;15.32;2.65;;;;;;;17.16;69.86;101902.97;5045387;27;99245;-78
2023/10/04 06:57:46;;;;;;;8.10;2.45;;;;;;;17.54;68.31;101907.44;5047924;27;99213;-80
2023/10/04 07:00:15;;;;;;;13.13;3.20;;;;;;;17.48;68.10;101918.41;5048750;27;99267;-82
2023/10/04 07:02:43;;;;;;;10.15;2.53;;;;;;;17.44;68.15;101915.03;5050508;27;97167;-80
2023/10/04 07:05:14;;;;;;;8.63;2.30;;;;;;;17.73;67.24;101907.47;5041134;27;99172;-79
2023/10/04 07:07:41;;;;;;;8.18;1.85;;;;;;;17.53;67.52;101917.25;5047094;27;99713;-77
2023/10/04 07:10:08;;;;;;;9.73;2.75;;;;;;;17.62;67.65;101913.34;5041227;27;98529;-81
2023/10/04 07:12:35;;;;;;;7.15;2.78;;;;;;;17.75;67.40;101924.31;5040037;27;96869;-80
2023/10/04 07:15:04;;;;;;;8.55;2.72;;;;;;;17.50;68.35;101932.56;5043482;27;98891;-80
2023/10/04 07:17:30;;;;;;;10.85;2.33;;;;;;;17.58;67.93;101925.09;5042805;27;98068;-80
2023/10/04 07:19:57;;;;;;;11.63;2.75;;;;;;;17.83;67.12;101915.00;5043784;27;97072;-81
2023/10/04 07:22:29;;;;;;;21.08;3.40;;;;;;;17.78;67.04;101930.41;5045063;27;99444;-80
2023/10/04 07:24:57;;;;;;;11.88;2.58;;;;;;;17.74;66.89;101926.13;5041010;27;98889;-81
2023/10/04 07:27:24;;;;;;;12.77;2.78;;;;;;;17.88;66.58;101931.69;5043331;27;101154;-81
2023/10/04 07:29:51;;;;;;;23.55;3.25;;;;;;;17.79;66.62;101941.94;5043744;27;96957;-81
2023/10/04 07:32:17;;;;;;;9.70;2.53;;;;;;;18.00;66.67;101953.44;5052719;27;96926;-80
2023/10/04 07:34:43;;;;;;;7.10;2.35;;;;;;;17.97;66.03;101940.22;5051459;27;98940;-79
2023/10/04 07:37:10;;;;;;;10.30;2.60;;;;;;;18.00;66.06;101942.75;5049902;27;98855;-80
2023/10/04 07:39:38;;;;;;;11.48;2.35;;;;;;;18.07;65.69;101938.84;5052462;27;97303;-79
2023/10/04 07:42:04;;;;;;;11.50;2.65;;;;;;;18.10;65.80;101939.56;5051850;27;96767;-80
2023/10/04 07:44:31;;;;;;;9.07;2.72;;;;;;;18.01;66.28;101940.00;5053382;27;99256;-79
2023/10/04 07:46:59;;;;;;;11.57;2.40;;;;;;;18.03;66.56;101942.63;5051112;27;98819;-79
2023/10/04 07:49:26;;;;;;;8.45;2.95;;;;;;;18.20;65.71;101939.97;5048828;27;98006;-82
2023/10/04 07:51:52;;;;;;;11.88;2.58;;;;;;;18.45;64.59;101940.50;5051312;27;98670;-83
2023/10/04 07:54:19;;;;;;;8.38;2.80;;;;;;;18.41;65.23;101943.44;5049321;27;99126;-82
2023/10/04 07:56:48;;;;;;;6.32;2.30;;;;;;;18.65;63.99;101944.91;5048948;27;98795;-80
2023/10/04 07:59:18;;;;;;;10.27;2.95;;;;;;;18.53;64.09;101943.69;5051278;27;97330;-80
2023/10/04 08:01:46;;;;;;;10.80;3.13;;;;;;;18.12;65.51;101932.31;5046484;27;97984;-82
2023/10/04 08:04:12;;;;;;;14.65;3.30;;;;;;;18.13;65.67;101950.09;5042803;27;96914;-78
2023/10/04 08:06:39;;;;;;;8.20;2.83;;;;;;;18.01;66.91;101947.16;5049253;27;97917;-78
2023/10/04 08:09:06;;;;;;;8.98;2.47;;;;;;;17.91;66.85;101949.41;5043421;27;97123;-78
2023/10/04 08:11:33;;;;;;;9.07;2.15;;;;;;;18.24;65.93;101960.31;5047465;27;98449;-77
2023/10/04 08:14:01;;;;;;;9.52;2.50;;;;;;;18.70;64.15;101957.16;5047544;27;99017;-78
2023/10/04 08:16:28;;;;;;;8.02;2.50;;;;;;;18.36;65.10;101950.81;5050234;27;98831;-78
2023/10/04 08:18:55;;;;;;;11.90;3.10;;;;;;;18.39;65.02;101959.56;5044084;27;101393;-78
2023/10/04 08:21:22;;;;;;;10.65;2.78;;;;;;;18.70;64.59;101973.22;5044165;27;98173;-78
2023/10/04 08:23:49;;;;;;;7.88;2.80;;;;;;;18.69;63.98;101968.78;5039352;27;99268;-77
2023/10/04 08:26:16;;;;;;;10.90;2.58;;;;;;;19.18;62.70;101973.44;5048562;27;99247;-77
2023/10/04 08:28:42;;;;;;;13.63;3.22;;;;;;;19.26;61.78;101965.88;5046975;27;97158;-76
2023/10/04 08:31:11;;;;;;;12.85;2.53;;;;;;;19.36;61.90;101976.00;5043104;27;97683;-76
2023/10/04 08:33:38;;;;;;;12.75;3.15;;;;;;;19.04;62.33;101980.38;5047177;27;98895;-77
2023/10/04 08:36:10;;;;;;;8.48;2.30;;;;;;;18.82;63.13;101976.22;5047087;27;99668;-77
2023/10/04 08:38:36;;;;;;;10.02;2.97;;;;;;;19.12;62.50;101988.03;5048687;27;98703;-77
2023/10/04 08:41:04;;;;;;;7.85;2.10;;;;;;;19.16;62.45;101981.59;5047555;27;97132;-77
2023/10/04 08:43:30;;;;;;;15.77;3.20;;;;;;;19.32;61.17;101984.31;5045166;27;100101;-77
2023/10/04 08:45:57;;;;;;;7.55;2.95;;;;;;;19.47;61.30;101979.06;5048481;27;98768;-78
2023/10/04 08:48:26;;;;;;;18.48;2.90;;;;;;;19.25;62.09;101981.09;5051321;27;97274;-76
2023/10/04 08:50:56;;;;;;;10.73;2.90;;;;;;;19.17;62.00;101985.97;5049437;27;97420;-77
2023/10/04 08:53:35;;;;;;;10.50;2.50;;;;;;;19.12;62.83;101988.03;5040924;27;99299;-77
2023/10/04 08:56:06;;;;;;;9.90;2.42;;;;;;;19.47;61.21;101987.09;5050858;27;98811;-78
2023/10/04 08:58:33;;;;;;;7.75;2.42;;;;;;;19.84;59.60;101996.69;5049816;27;97076;-77
2023/10/04 09:01:02;;;;;;;9.82;2.42;;;;;;;19.66;60.06;102002.19;5051577;27;97059;-78
2023/10/04 09:03:33;;;;;;;10.65;2.97;;;;;;;19.50;60.91;101994.97;5045940;27;98917;-78
2023/10/04 09:05:59;;;;;;;12.45;2.60;;;;;;;19.90;60.12;101998.19;5044162;27;97718;-78
2023/10/04 09:08:26;;;;;;;14.02;2.83;;;;;;;19.74;59.62;101999.97;5045859;27;96906;-78
2023/10/04 09:10:54;;;;;;;15.50;3.63;;;;;;;19.74;60.02;102003.53;5042230;27;98011;-79
2023/10/04 09:13:20;;;;;;;12.70;2.30;;;;;;;19.81;60.18;102007.63;5043222;27;98310;-79
2023/10/04 09:15:48;;;;;;;13.13;2.70;;;;;;;19.65;60.25;102001.31;5037945;27;99050;-79
2023/10/04 09:18:25;;;;;;;28.65;3.85;;;;;;;19.59;59.86;102004.34;5046270;27;98381;-79
2023/10/04 09:20:53;;;;;;;9.00;2.40;;;;;;;19.51;59.92;102009.22;5045123;27;97645;-79
2023/10/04 09:23:22;;;;;;;14.20;3.65;;;;;;;19.28;60.89;102015.78;5046043;27;99365;-79
2023/10/04 09:25:49;;;;;;;14.30;2.58;;;;;;;19.00;61.64;102012.75;5047532;27;99196;-78
2023/10/04 09:28:15;;;;;;;29.90;4.72;;;;;;;19.20;60.82;102007.25;5048452;27;97173;-78
2023/10/04 09:30:42;;;;;;;25.13;3.25;;;;;;;18.99;61.54;102024.41;5048315;27;96980;-78
2023/10/04 09:33:24;;;;;;;13.77;2.70;;;;;;;19.00;60.94;102013.63;5042217;27;99496;-78
2023/10/04 09:35:51;;;;;;;19.08;3.13;;;;;;;19.65;59.65;102016.53;5043050;27;99200;-79
2023/10/04 09:38:21;;;;;;;9.70;2.50;;;;;;;19.63;58.58;102021.13;5042936;27;96987;-79
2023/10/04 09:40:52;;;;;;;9.77;2.88;;;;;;;20.06;57.87;102025.03;5039432;27;98076;-78
2023/10/04 09:43:18;;;;;;;10.05;2.25;;;;;;;20.59;55.93;102009.50;5044779;27;100038;-78
2023/10/04 09:45:56;;;;;;;5.05;2.10;;;;;;;20.77;55.07;102007.56;5045510;27;99098;-78
2023/10/04 09:48:23;;;;;;;10.60;2.22;;;;;;;20.99;54.61;102005.38;5040221;27;97273;-79
2023/10/04 09:50:50;;;;;;;10.52;2.53;;;;;;;21.37;53.12;102004.91;5045334;27;97854;-78
2023/10/04 09:53:17;;;;;;;12.70;3.03;;;;;;;21.17;52.99;102003.44;5048621;27;99921;-80
2023/10/04 09:55:46;;;;;;;11.15;2.70;;;;;;;21.02;53.28;102004.31;5046383;27;99056;-78
2023/10/04 09:58:14;;;;;;;9.27;2.25;;;;;;;20.96;53.98;102013.59;5044002;27;96810;-79
2023/10/04 10:00:40;;;;;;;11.23;2.60;;;;;;;21.34;53.06;102015.84;5048834;27;96939;-77
2023/10/04 10:03:10;;;;;;;9.52;2.63;;;;;;;21.53;51.70;102013.75;5044059;27;98935;-77
2023/10/04 10:05:37;;;;;;;8.65;2.20;;;;;;;21.08;52.54;102018.25;5048137;27;98831;-78
2023/10/04 10:08:05;;;;;;;5.93;1.80;;;;;;;20.58;54.04;102031.94;5048498;27;96785;-77
2023/10/04 10:10:35;;;;;;;10.73;2.50;;;;;;;20.65;54.20;102038.69;5045385;27;97979;-78
2023/10/04 10:13:05;;;;;;;19.95;3.72;;;;;;;20.27;55.34;102037.28;5047345;27;98857;-77
2023/10/04 10:15:31;;;;;;;8.23;1.92;;;;;;;19.96;55.54;102046.13;5045579;27;98877;-77
2023/10/04 10:17:59;;;;;;;9.57;2.22;;;;;;;20.38;54.60;102037.56;5041970;27;96867;-78
2023/10/04 10:20:26;;;;;;;9.65;2.10;;;;;;;20.74;53.57;102034.63;5044845;27;97144;-78
2023/10/04 10:23:13;;;;;;;9.70;3.20;;;;;;;20.67;52.97;102039.50;5043234;27;99599;-76
2023/10/04 10:25:41;;;;;;;10.57;2.25;;;;;;;20.88;52.92;102036.50;5044803;27;101429;-77
2023/10/04 10:28:20;;;;;;;4.90;1.95;;;;;;;21.06;52.48;102040.81;5044168;27;97197;-77
2023/10/04 10:30:46;;;;;;;10.88;2.30;;;;;;;20.87;52.67;102043.69;5046599;27;96958;-77
2023/10/04 10:33:13;;;;;;;8.30;2.13;;;;;;;20.24;53.35;102037.44;5043519;27;99220;-79
2023/10/04 10:35:57;;;;;;;6.88;2.10;;;;;;;20.42;53.37;102052.53;5044218;27;99035;-78
2023/10/04 10:38:54;;;;;;;11.32;2.42;;;;;;;20.24;56.15;102058.91;5042868;27;96833;-79
2023/10/04 10:42:04;;;;;;;13.02;3.33;;;;;;;19.93;57.21;102040.94;5023038;27;99414;-78
2023/10/04 10:44:33;;;;;;;14.43;2.35;;;;;;;19.79;58.53;102051.53;5045388;27;98947;-78
2023/10/04 10:47:06;;;;;;;12.27;2.63;;;;;;;19.75;57.59;102047.31;5041815;27;100169;-77
2023/10/04 10:49:51;;;;;;;11.70;2.15;;;;;;;20.01;57.34;102056.63;5040601;27;97770;-78
2023/10/04 10:52:26;;;;;;;8.10;2.13;;;;;;;20.27;55.93;102053.38;5042975;27;97364;-78
2023/10/04 10:54:52;;;;;;;9.68;2.50;;;;;;;20.10;55.66;102046.25;5044014;27;98029;-78
2023/10/04 10:57:20;;;;;;;7.75;1.95;;;;;;;20.39;55.04;102046.50;5047650;27;99015;-80
2023/10/04 10:59:49;;;;;;;8.65;2.25;;;;;;;20.44;53.92;102047.97;5046128;27;99173;-82
2023/10/04 11:02:16;;;;;;;9.90;2.30;;;;;;;20.46;53.31;102039.84;5044239;27;97585;-82
2023/10/04 11:04:43;;;;;;;9.02;2.28;;;;;;;20.43;53.85;102042.69;5047455;27;98142;-80
2023/10/04 11:07:11;;;;;;;7.20;2.00;;;;;;;20.91;52.17;102036.31;5051338;27;98703;-77
2023/10/04 11:09:39;;;;;;;9.63;2.20;;;;;;;20.98;51.70;102041.25;5051453;27;100355;-78
2023/10/04 11:12:07;;;;;;;12.65;2.90;;;;;;;20.83;51.32;102044.81;5050028;27;96842;-77
2023/10/04 11:14:34;;;;;;;11.05;2.65;;;;;;;21.02;50.95;102044.63;5048382;27;102064;-78
2023/10/04 11:17:03;;;;;;;10.13;2.58;;;;;;;21.16;51.21;102042.00;5046251;27;99019;-82
2023/10/04 11:19:30;;;;;;;12.90;3.15;;;;;;;21.02;51.66;102040.09;5049409;27;97786;-78
2023/10/04 11:21:59;;;;;;;13.82;3.05;;;;;;;21.01;51.67;102041.06;5047985;27;96931;-80
2023/10/04 11:24:26;;;;;;;7.78;2.25;;;;;;;20.82;52.29;102045.78;5047519;27;99030;-78
2023/10/04 11:26:56;;;;;;;6.32;2.15;;;;;;;20.48;52.96;102056.72;5049388;27;99586;-79